Time;durP1;ratioP1;P1;durP2;ratioP2;P2;SDS_P1;SDS_P2;PMS_P1;PMS_P2;Temp;Humidity;BMP_temperature;BMP_pressure;BME280_temperature;BME280_humidity;BME280_pressure;Samples;Min_cycle;Max_cycle;Signal;HPM_P1;HPM_P2
2021/01/29 00:01:25;;;;;;;24.17;12.02;;;;;;;0.10;59.05;98385.66;5047103;28;20049;-73
2021/01/29 00:03:53;;;;;;;21.40;12.52;;;;;;;0.05;59.07;98379.09;5044650;28;20067;-71
2021/01/29 00:06:19;;;;;;;22.88;13.52;;;;;;;0.02;59.08;98390.50;5045342;28;20142;-70
2021/01/29 00:08:46;;;;;;;20.55;13.35;;;;;;;-0.01;59.30;98385.47;5047269;28;20702;-72
2021/01/29 00:11:12;;;;;;;21.65;11.98;;;;;;;-0.04;59.06;98378.72;5046047;28;20408;-72
2021/01/29 00:13:39;;;;;;;21.15;11.38;;;;;;;-0.03;58.89;98382.97;5046084;28;20351;-72
2021/01/29 00:16:06;;;;;;;19.77;11.27;;;;;;;-0.07;59.38;98378.91;5051593;28;20045;-74
2021/01/29 00:18:33;;;;;;;14.60;8.93;;;;;;;-0.12;59.11;98373.13;5051368;28;20108;-71
2021/01/29 00:21:00;;;;;;;20.55;11.45;;;;;;;-0.17;59.62;98375.16;5052713;28;20070;-73
2021/01/29 00:23:27;;;;;;;20.42;11.55;;;;;;;-0.13;59.11;98381.84;5054104;28;20051;-71
2021/01/29 00:25:55;;;;;;;25.02;11.88;;;;;;;-0.22;59.64;98375.44;5051304;28;20049;-72
2021/01/29 00:28:23;;;;;;;18.85;10.10;;;;;;;-0.17;59.70;98389.91;5052629;28;20060;-71
2021/01/29 00:30:50;;;;;;;14.80;6.88;;;;;;;-0.14;59.23;98387.13;5049602;28;20489;-69
2021/01/29 00:33:20;;;;;;;23.92;14.73;;;;;;;-0.25;59.61;98391.19;5049454;28;20390;-73
2021/01/29 00:35:46;;;;;;;19.65;11.45;;;;;;;-0.23;59.56;98383.31;5048615;28;20045;-71
2021/01/29 00:38:14;;;;;;;17.13;9.45;;;;;;;-0.27;59.86;98384.41;5047257;28;20531;-69
2021/01/29 00:40:40;;;;;;;17.48;6.22;;;;;;;-0.26;59.51;98386.91;5046533;28;20049;-69
2021/01/29 00:43:07;;;;;;;19.77;10.80;;;;;;;-0.31;59.79;98391.53;5044817;28;20079;-69
2021/01/29 00:45:36;;;;;;;15.88;11.23;;;;;;;-0.29;59.77;98391.44;5045591;28;20047;-71
2021/01/29 00:48:03;;;;;;;16.05;8.45;;;;;;;-0.30;59.89;98392.38;5046561;28;20044;-72
2021/01/29 00:50:29;;;;;;;17.73;10.60;;;;;;;-0.32;60.14;98392.47;5045776;28;20481;-71
2021/01/29 00:52:56;;;;;;;16.90;6.25;;;;;;;-0.15;59.85;98393.25;5044118;28;20098;-69
2021/01/29 00:55:23;;;;;;;18.00;8.57;;;;;;;-0.09;59.79;98388.53;5044543;28;20053;-71
2021/01/29 00:57:50;;;;;;;12.30;5.65;;;;;;;0.01;59.44;98394.00;5045912;28;20047;-74
2021/01/29 01:00:18;;;;;;;15.70;8.40;;;;;;;0.10;59.06;98383.06;5044206;28;20045;-73
2021/01/29 01:02:47;;;;;;;16.58;11.18;;;;;;;0.10;58.93;98383.06;5045234;28;20107;-72
2021/01/29 01:05:15;;;;;;;14.73;8.38;;;;;;;0.13;59.15;98379.47;5046038;28;20048;-71
2021/01/29 01:07:42;;;;;;;12.57;6.00;;;;;;;0.13;59.00;98385.50;5044321;28;20110;-72
2021/01/29 01:10:09;;;;;;;15.13;8.07;;;;;;;0.12;58.91;98391.59;5044243;28;20560;-69
2021/01/29 01:12:36;;;;;;;16.38;9.50;;;;;;;0.06;59.20;98391.97;5043716;28;20678;-70
2021/01/29 01:15:06;;;;;;;18.88;10.05;;;;;;;0.03;59.19;98388.72;5043893;28;20053;-71
2021/01/29 01:17:33;;;;;;;12.80;6.97;;;;;;;0.04;59.42;98383.44;5044194;28;20065;-72
2021/01/29 01:19:59;;;;;;;12.45;6.50;;;;;;;0.13;59.44;98380.31;5046231;28;20060;-75
2021/01/29 01:22:26;;;;;;;15.05;7.13;;;;;;;0.24;59.09;98384.03;5045867;28;20064;-74
2021/01/29 01:24:52;;;;;;;15.13;8.35;;;;;;;0.26;59.05;98387.38;5046289;28;20049;-73
2021/01/29 01:27:19;;;;;;;14.90;8.73;;;;;;;0.23;58.86;98387.53;5046237;28;20103;-74
2021/01/29 01:29:47;;;;;;;9.82;5.63;;;;;;;0.33;58.82;98388.66;5045152;28;20044;-69
2021/01/29 01:32:13;;;;;;;17.27;8.63;;;;;;;0.33;58.29;98388.66;5044888;28;20048;-71
2021/01/29 01:34:39;;;;;;;13.80;6.03;;;;;;;0.41;58.54;98381.22;5044889;28;20045;-70
2021/01/29 01:37:06;;;;;;;18.73;9.85;;;;;;;0.42;57.81;98377.72;5044372;28;20045;-69
2021/01/29 01:39:32;;;;;;;18.98;10.50;;;;;;;0.48;57.60;98377.31;5045450;28;20049;-71
2021/01/29 01:41:59;;;;;;;16.58;7.60;;;;;;;0.52;57.53;98376.22;5043281;28;20041;-71
2021/01/29 01:44:32;;;;;;;9.77;5.32;;;;;;;0.55;57.09;98381.22;5044958;28;20045;-72
2021/01/29 01:47:05;;;;;;;14.65;7.30;;;;;;;0.60;57.00;98372.31;5045642;28;20106;-73
2021/01/29 01:49:34;;;;;;;11.85;6.88;;;;;;;0.63;56.14;98382.50;5045700;28;20529;-70
2021/01/29 01:52:06;;;;;;;11.38;7.35;;;;;;;0.56;56.04;98364.72;5044894;28;20476;-74
2021/01/29 01:54:42;;;;;;;15.38;7.40;;;;;;;0.66;56.18;98369.34;5046031;28;20110;-72
2021/01/29 01:57:13;;;;;;;7.75;5.03;;;;;;;0.66;55.55;98369.34;5043905;28;20107;-71
2021/01/29 01:59:42;;;;;;;12.65;6.28;;;;;;;0.64;55.80;98358.22;5045007;28;20095;-72
2021/01/29 02:02:12;;;;;;;12.77;7.47;;;;;;;0.67;55.93;98361.44;5044060;28;20049;-71
2021/01/29 02:04:44;;;;;;;14.63;7.13;;;;;;;0.75;55.77;98358.38;5044617;28;20041;-73
2021/01/29 02:07:25;;;;;;;14.43;7.05;;;;;;;0.72;55.81;98354.19;5044418;28;20438;-73
2021/01/29 02:09:52;;;;;;;16.80;7.00;;;;;;;0.76;55.89;98352.25;5045592;28;20132;-70
2021/01/29 02:12:19;;;;;;;23.63;9.68;;;;;;;0.71;55.82;98349.09;5043431;28;20064;-70
2021/01/29 02:14:46;;;;;;;11.98;6.05;;;;;;;0.64;56.14;98350.41;5044658;28;20076;-70
2021/01/29 02:17:25;;;;;;;16.65;9.65;;;;;;;0.62;56.50;98352.28;5045651;28;20056;-70
2021/01/29 02:20:37;;;;;;;15.52;9.05;;;;;;;0.59;56.75;98357.66;5044867;28;20111;-70
2021/01/29 02:23:42;;;;;;;16.33;7.80;;;;;;;0.65;56.92;98357.25;5045179;28;20049;-71
2021/01/29 02:26:33;;;;;;;15.20;9.68;;;;;;;0.63;57.42;98359.97;5027784;28;20198;-72
2021/01/29 02:29:34;;;;;;;17.95;6.88;;;;;;;0.68;57.08;98359.69;5044013;28;20162;-71
2021/01/29 02:32:37;;;;;;;15.02;8.07;;;;;;;0.76;57.18;98357.44;5045029;28;20052;-70
2021/01/29 02:35:24;;;;;;;12.68;8.25;;;;;;;0.70;56.88;98356.06;4962960;28;20519;-73
2021/01/29 02:38:37;;;;;;;16.95;9.73;;;;;;;0.61;57.02;98338.44;4963968;28;20043;-73
2021/01/29 02:41:12;;;;;;;14.82;8.02;;;;;;;0.65;56.99;98346.88;4962763;28;20059;-71
2021/01/29 02:43:59;;;;;;;13.40;8.57;;;;;;;0.61;57.09;98341.03;4961326;28;20134;-74
2021/01/29 02:46:31;;;;;;;12.07;7.47;;;;;;;0.60;56.88;98343.75;4965262;28;20047;-71
2021/01/29 02:49:04;;;;;;;12.55;6.97;;;;;;;0.63;57.27;98346.13;4963987;28;20091;-70
2021/01/29 02:51:40;;;;;;;11.63;8.10;;;;;;;0.60;56.89;98341.97;4966748;28;20046;-74
2021/01/29 02:54:12;;;;;;;;;;;;;;;0.74;56.88;98346.31;4968661;28;20089;-76
2021/01/29 02:56:44;;;;;;;16.73;8.95;;;;;;;0.63;57.06;98343.53;4966849;28;20424;-71
2021/01/29 02:59:20;;;;;;;11.43;5.80;;;;;;;0.59;57.47;98349.84;4967760;28;20051;-72
2021/01/29 03:01:52;;;;;;;12.68;6.95;;;;;;;0.62;57.69;98339.28;4965321;28;20462;-72
2021/01/29 03:04:23;;;;;;;16.13;5.78;;;;;;;0.70;56.95;98344.81;4966463;28;20082;-68
2021/01/29 03:06:58;;;;;;;12.77;7.50;;;;;;;0.73;57.14;98353.25;4966174;28;20069;-71
2021/01/29 03:09:37;;;;;;;9.73;6.72;;;;;;;0.79;56.86;98364.19;4966555;28;20058;-71
2021/01/29 03:12:08;;;;;;;12.43;8.20;;;;;;;0.72;57.01;98351.59;4999879;28;20113;-71
2021/01/29 03:14:41;;;;;;;11.45;7.93;;;;;;;0.74;57.40;98346.31;5047599;28;20044;-71
2021/01/29 03:17:13;;;;;;;11.25;5.68;;;;;;;0.77;57.41;98351.31;5047725;28;20048;-71
2021/01/29 03:19:48;;;;;;;13.45;7.10;;;;;;;0.83;57.18;98352.69;5047931;28;20049;-72
2021/01/29 03:22:21;;;;;;;11.43;6.05;;;;;;;0.82;57.00;98348.44;5047779;28;20049;-70
2021/01/29 03:24:52;;;;;;;10.88;5.80;;;;;;;0.84;56.92;98347.38;5047804;28;20049;-74
2021/01/29 03:27:24;;;;;;;10.63;5.72;;;;;;;0.95;56.75;98337.16;5048570;28;20048;-71
2021/01/29 03:29:58;;;;;;;10.55;7.32;;;;;;;0.89;56.82;98334.09;5048408;28;20045;-72
2021/01/29 03:32:26;;;;;;;13.02;6.68;;;;;;;0.82;56.64;98335.44;5047219;28;20106;-73
2021/01/29 03:35:00;;;;;;;11.43;6.78;;;;;;;0.88;56.95;98341.09;5048475;28;20109;-72
2021/01/29 03:37:33;;;;;;;10.75;5.38;;;;;;;0.91;56.60;98337.44;5047591;28;20045;-71
2021/01/29 03:40:02;;;;;;;6.72;3.95;;;;;;;0.87;56.36;98336.81;5047589;28;20049;-74
2021/01/29 03:42:35;;;;;;;12.02;6.63;;;;;;;0.88;56.37;98345.44;5046293;28;20052;-72
2021/01/29 03:45:14;;;;;;;11.95;8.18;;;;;;;0.82;56.40;98331.06;5048195;28;20508;-71
2021/01/29 03:47:53;;;;;;;12.27;6.82;;;;;;;0.75;57.13;98338.41;5048032;28;20048;-74
2021/01/29 03:50:29;;;;;;;12.15;7.63;;;;;;;0.72;56.72;98335.16;5048144;28;20118;-72
2021/01/29 03:53:06;;;;;;;13.15;7.70;;;;;;;0.70;56.95;98344.81;4995814;28;20051;-72
2021/01/29 03:55:44;;;;;;;9.43;7.28;;;;;;;0.75;56.69;98332.38;5048820;28;20041;-69
2021/01/29 03:58:17;;;;;;;11.25;8.23;;;;;;;0.71;56.68;98336.09;5047264;28;20049;-70
2021/01/29 04:00:56;;;;;;;13.00;6.38;;;;;;;0.71;57.07;98341.31;5046092;28;20061;-72
2021/01/29 04:03:38;;;;;;;10.60;5.25;;;;;;;0.79;57.20;98339.03;5046575;28;20041;-71
2021/01/29 04:06:11;;;;;;;9.55;5.63;;;;;;;0.84;56.68;98342.19;5047685;28;20060;-74
2021/01/29 04:08:42;;;;;;;12.82;8.77;;;;;;;0.80;57.15;98329.50;5046933;28;20694;-73
2021/01/29 04:11:17;;;;;;;10.90;6.15;;;;;;;0.79;56.74;98343.41;5048008;28;20052;-72
2021/01/29 04:13:49;;;;;;;12.15;6.78;;;;;;;0.72;57.30;98338.63;5045537;28;20056;-69
2021/01/29 04:16:26;;;;;;;10.30;6.45;;;;;;;0.71;57.62;98341.31;5047551;28;20041;-69
2021/01/29 04:18:56;;;;;;;11.13;6.47;;;;;;;0.72;57.34;98337.75;5047897;28;20099;-69
2021/01/29 04:21:29;;;;;;;9.55;6.10;;;;;;;0.75;57.32;98343.59;5047319;28;20114;-70
2021/01/29 04:24:03;;;;;;;8.98;6.00;;;;;;;0.73;57.18;98355.03;5047578;28;20102;-71
2021/01/29 04:26:34;;;;;;;8.98;4.97;;;;;;;0.74;57.26;98349.75;5047620;28;20072;-71
2021/01/29 04:29:05;;;;;;;10.55;6.03;;;;;;;0.68;57.46;98350.09;5048165;28;20045;-76
2021/01/29 04:31:33;;;;;;;11.15;6.75;;;;;;;0.72;57.65;98348.16;5046999;28;20052;-70
2021/01/29 04:34:05;;;;;;;14.98;7.20;;;;;;;0.78;57.24;98350.38;5047638;28;20138;-74
2021/01/29 04:36:34;;;;;;;11.57;6.22;;;;;;;0.72;57.41;98350.75;5047424;28;20461;-71
2021/01/29 04:39:07;;;;;;;23.85;15.68;;;;;;;0.69;57.40;98349.19;5055126;28;20044;-76
2021/01/29 04:41:58;;;;;;;11.65;5.65;;;;;;;0.75;57.25;98354.00;5053592;28;20049;-75
2021/01/29 04:44:41;;;;;;;10.63;6.45;;;;;;;0.77;57.32;98359.09;5052609;28;20045;-76
2021/01/29 04:47:20;;;;;;;25.02;11.75;;;;;;;0.78;57.36;98358.19;5048295;28;20049;-74
2021/01/29 04:50:11;;;;;;;10.10;4.88;;;;;;;0.89;57.40;98365.31;5048256;28;20275;-73
2021/01/29 04:53:14;;;;;;;9.07;6.15;;;;;;;0.88;57.18;98361.88;5049333;28;20646;-77
2021/01/29 04:55:51;;;;;;;17.20;9.20;;;;;;;0.82;57.47;98369.22;4985590;28;20043;-74
2021/01/29 04:58:24;;;;;;;22.70;11.70;;;;;;;0.75;57.70;98358.38;4984548;28;20047;-72
2021/01/29 05:01:23;;;;;;;10.38;5.30;;;;;;;0.84;57.35;98367.34;4984782;28;20054;-74
2021/01/29 05:04:26;;;;;;;9.20;6.03;;;;;;;0.90;57.56;98369.56;4984822;28;20050;-74
2021/01/29 05:07:10;;;;;;;15.85;9.65;;;;;;;0.83;57.74;98368.25;4984359;28;20054;-76
2021/01/29 05:10:19;;;;;;;13.85;8.13;;;;;;;0.81;57.64;98367.53;4984592;28;20303;-77
2021/01/29 05:13:10;;;;;;;9.93;5.93;;;;;;;0.84;57.68;98370.78;4983414;28;20050;-74
2021/01/29 05:16:12;;;;;;;23.50;8.82;;;;;;;0.91;57.57;98368.63;4983002;28;20050;-76
2021/01/29 05:19:12;;;;;;;10.23;6.63;;;;;;;0.90;57.41;98370.41;4984479;28;20050;-73
2021/01/29 05:22:26;;;;;;;14.30;7.78;;;;;;;0.81;57.60;98368.38;4965176;28;20054;-75
2021/01/29 05:25:37;;;;;;;8.63;4.88;;;;;;;0.85;57.93;98375.06;4947117;29;20048;-75
2021/01/29 05:28:42;;;;;;;14.68;7.93;;;;;;;0.82;57.88;98382.22;4927226;29;20126;-74
2021/01/29 05:31:33;;;;;;;11.85;5.85;;;;;;;0.84;57.94;98373.38;4927026;29;20059;-75
2021/01/29 05:34:13;;;;;;;10.77;6.85;;;;;;;0.90;57.57;98378.19;4962877;28;20060;-78
2021/01/29 05:36:58;;;;;;;6.95;5.63;;;;;;;0.92;57.57;98380.72;4965890;28;20691;-76
2021/01/29 05:39:45;;;;;;;10.88;6.07;;;;;;;0.89;57.85;98386.91;4967153;28;20046;-72
2021/01/29 05:42:34;;;;;;;10.98;5.97;;;;;;;0.97;57.91;98389.03;4965533;28;20043;-78
2021/01/29 05:45:16;;;;;;;10.48;5.60;;;;;;;0.90;57.81;98391.19;4948549;28;20065;-74
2021/01/29 05:48:19;;;;;;;9.90;6.15;;;;;;;0.94;57.82;98399.63;4963576;28;20589;-74
2021/01/29 05:51:17;;;;;;;12.65;6.28;;;;;;;1.00;58.06;98396.63;4966825;28;20051;-74
2021/01/29 05:54:19;;;;;;;9.40;5.95;;;;;;;0.95;57.94;98394.34;4963533;28;20811;-73
2021/01/29 05:56:55;;;;;;;9.80;5.72;;;;;;;0.98;57.56;98395.09;4963743;28;20055;-70
2021/01/29 05:59:39;;;;;;;9.98;6.72;;;;;;;0.93;58.07;98403.97;4996163;28;20049;-69
2021/01/29 06:02:20;;;;;;;14.75;5.55;;;;;;;1.08;57.78;98406.56;5002559;28;20057;-70
2021/01/29 06:05:09;;;;;;;11.13;6.82;;;;;;;1.08;57.47;98398.75;5024621;28;20045;-74
2021/01/29 06:07:58;;;;;;;14.52;8.30;;;;;;;1.05;57.27;98399.78;5044588;28;20148;-71
2021/01/29 06:10:43;;;;;;;12.38;8.02;;;;;;;1.02;57.41;98396.56;5044624;28;20049;-69
2021/01/29 06:13:47;;;;;;;27.75;14.05;;;;;;;1.02;57.35;98397.38;5043126;28;20053;-69
2021/01/29 06:17:01;;;;;;;19.20;9.75;;;;;;;1.03;57.13;98393.84;5044172;28;20052;-68
2021/01/29 06:20:09;;;;;;;7.45;4.35;;;;;;;1.06;57.40;98401.47;5043955;28;20417;-67
2021/01/29 06:23:03;;;;;;;8.85;5.78;;;;;;;1.09;57.11;98403.03;4980487;28;20085;-68
2021/01/29 06:26:07;;;;;;;9.88;6.38;;;;;;;1.01;57.31;98392.28;4984269;28;20053;-69
2021/01/29 06:29:00;;;;;;;14.40;6.88;;;;;;;0.90;57.23;98392.94;4984993;28;20043;-69
2021/01/29 06:32:15;;;;;;;15.77;8.52;;;;;;;1.00;57.44;98393.22;4984932;28;20093;-71
2021/01/29 06:35:17;;;;;;;11.70;7.57;;;;;;;0.97;57.26;98391.63;4981702;28;20050;-71
2021/01/29 06:38:07;;;;;;;12.23;7.45;;;;;;;0.96;57.21;98387.38;4968554;28;20063;-72
2021/01/29 06:40:42;;;;;;;12.18;6.82;;;;;;;1.02;57.34;98391.34;4963909;28;20043;-72
2021/01/29 06:43:35;;;;;;;10.00;7.15;;;;;;;1.10;57.22;98382.13;4962896;28;20061;-71
2021/01/29 06:46:28;;;;;;;18.00;8.05;;;;;;;1.05;56.97;98373.78;4962199;28;20053;-74
2021/01/29 06:49:13;;;;;;;12.95;8.70;;;;;;;0.97;57.53;98372.59;4964267;28;20046;-71
2021/01/29 06:52:09;;;;;;;12.05;9.35;;;;;;;0.89;57.58;98373.91;4960528;28;20135;-70
2021/01/29 06:55:11;;;;;;;9.10;7.57;;;;;;;0.90;57.33;98375.59;4962883;28;20050;-68
2021/01/29 06:58:15;;;;;;;12.25;6.70;;;;;;;1.00;57.15;98372.41;4955065;28;20097;-69
2021/01/29 07:01:02;;;;;;;12.27;7.63;;;;;;;0.92;57.64;98371.13;4868426;29;20136;-68
2021/01/29 07:03:50;;;;;;;9.35;7.82;;;;;;;0.86;57.86;98371.50;4868651;29;20061;-69
2021/01/29 07:06:44;;;;;;;11.00;7.93;;;;;;;0.85;57.59;98363.84;4864482;29;20065;-66
2021/01/29 07:09:20;;;;;;;11.60;6.85;;;;;;;0.82;57.61;98370.03;4866662;29;20132;-67
2021/01/29 07:12:20;;;;;;;13.20;7.10;;;;;;;0.79;57.91;98365.03;4873384;29;20053;-67
2021/01/29 07:15:14;;;;;;;10.20;6.75;;;;;;;1.07;57.38;98361.53;4883341;29;20056;-65
2021/01/29 07:18:09;;;;;;;10.52;6.40;;;;;;;1.03;57.06;98356.63;4886729;29;20056;-66
2021/01/29 07:20:49;;;;;;;9.00;6.05;;;;;;;0.96;57.42;98356.19;4885809;29;20049;-66
2021/01/29 07:23:39;;;;;;;11.77;7.32;;;;;;;1.03;57.17;98349.66;4889680;29;20064;-65
2021/01/29 07:26:27;;;;;;;13.20;7.22;;;;;;;1.05;57.15;98353.00;4889252;29;20057;-68
2021/01/29 07:29:11;;;;;;;9.13;6.43;;;;;;;1.07;57.32;98355.50;4878882;29;20135;-67
2021/01/29 07:31:44;;;;;;;11.35;7.30;;;;;;;1.06;57.01;98341.69;4873350;29;20057;-68
2021/01/29 07:34:23;;;;;;;11.00;5.95;;;;;;;1.19;56.52;98348.66;4892633;29;20050;-68
2021/01/29 07:37:25;;;;;;;14.55;7.13;;;;;;;1.25;56.50;98346.50;4942656;28;20049;-72
2021/01/29 07:40:30;;;;;;;8.48;6.07;;;;;;;1.29;56.50;98342.75;5021841;28;20046;-70
2021/01/29 07:43:30;;;;;;;8.70;7.05;;;;;;;1.28;56.27;98341.13;4941004;29;20047;-71
2021/01/29 07:46:24;;;;;;;11.50;6.45;;;;;;;1.29;56.43;98342.75;4941798;29;20672;-72
2021/01/29 07:49:18;;;;;;;17.02;8.30;;;;;;;1.24;56.65;98339.66;4942339;29;20098;-68
2021/01/29 07:51:52;;;;;;;9.55;5.72;;;;;;;1.25;56.26;98332.69;4946788;29;20053;-71
2021/01/29 07:54:40;;;;;;;15.27;6.88;;;;;;;1.26;56.58;98339.53;4952518;29;20051;-68
2021/01/29 07:57:20;;;;;;;8.10;5.55;;;;;;;1.38;56.14;98337.91;4946102;29;20047;-67
2021/01/29 08:00:09;;;;;;;9.63;7.03;;;;;;;1.29;55.73;98334.13;4974757;28;20212;-68
2021/01/29 08:02:59;;;;;;;9.20;6.13;;;;;;;1.22;55.81;98332.88;4983533;28;20134;-75
2021/01/29 08:05:32;;;;;;;13.30;8.27;;;;;;;1.42;55.41;98340.19;4974059;28;20049;-69
2021/01/29 08:08:05;;;;;;;13.43;7.90;;;;;;;1.44;55.69;98340.09;4971429;28;20043;-75
2021/01/29 08:10:38;;;;;;;11.63;6.63;;;;;;;1.40;55.54;98341.25;4973910;28;20046;-70
2021/01/29 08:13:15;;;;;;;14.15;8.02;;;;;;;1.45;55.22;98342.59;4969836;28;20104;-69
2021/01/29 08:16:02;;;;;;;14.45;8.63;;;;;;;1.40;55.02;98342.06;4963219;28;20082;-71
2021/01/29 08:18:51;;;;;;;13.65;9.32;;;;;;;1.27;55.51;98339.44;4976218;28;20050;-72
2021/01/29 08:22:06;;;;;;;15.57;9.48;;;;;;;1.36;55.52;98348.41;5019063;28;20465;-74
2021/01/29 08:24:50;;;;;;;13.95;7.97;;;;;;;1.38;55.38;98340.50;4958835;29;20122;-71
2021/01/29 08:27:49;;;;;;;14.00;7.28;;;;;;;1.28;55.56;98341.13;4953839;29;20742;-68
2021/01/29 08:30:49;;;;;;;11.70;5.95;;;;;;;1.55;54.99;98322.03;4939523;29;20547;-69
2021/01/29 08:33:59;;;;;;;11.60;6.43;;;;;;;1.84;54.33;98316.63;4890344;29;20111;-69
2021/01/29 08:36:44;;;;;;;14.60;7.40;;;;;;;1.97;54.08;98314.03;4837807;29;20050;-75
2021/01/29 08:39:20;;;;;;;15.77;9.25;;;;;;;1.96;53.40;98307.97;4832487;29;20058;-71
2021/01/29 08:41:58;;;;;;;16.08;9.35;;;;;;;1.95;53.38;98303.72;4837796;29;20050;-71
2021/01/29 08:44:55;;;;;;;14.27;7.35;;;;;;;2.07;53.29;98305.47;4836147;29;20054;-69
2021/01/29 08:47:30;;;;;;;;;;;;;;;2.28;52.77;98315.34;4828299;29;20058;-68
2021/01/29 08:50:17;;;;;;;14.55;8.27;;;;;;;2.09;52.41;98301.00;4828842;29;20000;-68
2021/01/29 08:53:10;;;;;;;11.23;5.35;;;;;;;2.19;52.65;98305.56;4829873;29;20095;-69
2021/01/29 08:55:53;;;;;;;8.75;3.90;;;;;;;2.33;52.31;98304.63;4865352;29;20050;-66
2021/01/29 08:58:26;;;;;;;9.15;3.47;;;;;;;2.41;52.00;98290.13;4883551;29;20049;-67
2021/01/29 09:01:02;;;;;;;13.02;7.28;;;;;;;2.45;51.86;98301.97;4884080;29;20078;-65
2021/01/29 09:03:37;;;;;;;11.40;6.10;;;;;;;2.31;51.50;98302.13;4896790;29;20557;-68
2021/01/29 09:06:13;;;;;;;9.80;5.97;;;;;;;2.08;51.96;98299.31;4899140;29;20597;-69
2021/01/29 09:08:42;;;;;;;11.15;6.93;;;;;;;1.86;52.79;98304.34;4907071;29;20353;-67
2021/01/29 09:11:20;;;;;;;9.70;6.25;;;;;;;1.88;52.25;98303.28;4941954;28;20051;-69
2021/01/29 09:13:53;;;;;;;10.15;7.28;;;;;;;2.22;51.94;98313.19;5019768;28;20052;-70
2021/01/29 09:16:26;;;;;;;9.05;6.82;;;;;;;2.19;51.79;98311.59;5019955;28;20076;-70
2021/01/29 09:18:59;;;;;;;9.48;6.20;;;;;;;2.08;51.83;98303.72;5019548;28;20046;-70
2021/01/29 09:21:34;;;;;;;8.38;5.75;;;;;;;2.00;52.38;98306.84;5018602;28;20045;-70
2021/01/29 09:24:11;;;;;;;;;;;;;;;2.40;51.48;98308.47;5018300;28;20045;-70
2021/01/29 09:26:40;;;;;;;;;;;;;;;2.29;51.32;98310.03;5018558;28;19966;-67
2021/01/29 09:29:19;;;;;;;13.07;6.80;;;;;;;2.04;52.39;98317.88;5018132;28;19950;-70
2021/01/29 09:31:52;;;;;;;17.27;5.70;;;;;;;2.13;52.02;98311.22;4994366;28;20045;-67
2021/01/29 09:34:23;;;;;;;14.40;7.10;;;;;;;2.37;51.71;98308.66;5018845;28;20645;-68
2021/01/29 09:36:52;;;;;;;8.82;6.90;;;;;;;2.51;51.66;98302.50;5018098;28;20052;-68
2021/01/29 09:39:26;;;;;;;10.77;6.00;;;;;;;2.29;51.58;98296.19;5019827;28;20135;-70
2021/01/29 09:41:59;;;;;;;8.38;7.07;;;;;;;2.08;51.69;98296.72;5018896;28;20057;-67
2021/01/29 09:44:30;;;;;;;9.63;5.45;;;;;;;2.13;51.85;98303.41;5017757;28;20106;-69
2021/01/29 09:47:01;;;;;;;17.70;6.95;;;;;;;2.31;51.94;98303.91;5019043;28;20213;-68
2021/01/29 09:49:30;;;;;;;13.27;7.60;;;;;;;2.40;51.54;98298.88;5015664;28;20083;-69
2021/01/29 09:52:05;;;;;;;14.50;8.65;;;;;;;2.27;51.58;98295.47;5019516;28;20056;-70
2021/01/29 09:54:44;;;;;;;16.27;7.78;;;;;;;2.47;51.30;98294.06;5020617;28;20103;-68
2021/01/29 09:57:18;;;;;;;19.25;8.75;;;;;;;2.77;50.57;98283.19;5020668;28;20045;-69
2021/01/29 09:59:52;;;;;;;13.52;6.03;;;;;;;2.93;50.62;98284.72;5024873;28;20056;-70
2021/01/29 10:02:30;;;;;;;10.82;6.95;;;;;;;2.82;50.11;98275.06;5038970;28;20057;-70
2021/01/29 10:05:07;;;;;;;10.82;6.97;;;;;;;2.89;50.17;98272.84;5045684;28;20049;-69
2021/01/29 10:07:37;;;;;;;14.90;8.68;;;;;;;3.13;50.06;98273.63;5047665;28;20149;-72
2021/01/29 10:10:12;;;;;;;12.95;5.95;;;;;;;3.40;49.89;98278.63;5045302;28;20072;-66
2021/01/29 10:12:43;;;;;;;13.98;8.77;;;;;;;3.44;49.47;98279.22;5045716;28;20108;-68
2021/01/29 10:15:18;;;;;;;14.82;8.75;;;;;;;3.41;49.37;98280.25;5043071;28;20049;-69
2021/01/29 10:17:55;;;;;;;10.25;5.88;;;;;;;3.25;49.01;98291.00;5041548;28;20045;-68
2021/01/29 10:20:26;;;;;;;16.70;9.40;;;;;;;3.41;49.42;98295.91;5042503;28;20041;-68
2021/01/29 10:23:22;;;;;;;11.77;5.97;;;;;;;3.43;49.53;98285.38;5041113;28;20109;-68
2021/01/29 10:26:03;;;;;;;12.55;8.35;;;;;;;3.46;49.40;98285.16;4958428;28;20098;-66
2021/01/29 10:28:55;;;;;;;17.10;8.95;;;;;;;3.37;49.53;98286.66;4959635;28;20089;-67
2021/01/29 10:31:24;;;;;;;10.38;6.22;;;;;;;3.23;49.73;98287.69;4926131;29;20052;-69
2021/01/29 10:34:12;;;;;;;14.35;8.60;;;;;;;2.95;49.86;98288.03;4925259;29;20133;-68
2021/01/29 10:36:40;;;;;;;12.05;6.72;;;;;;;2.87;49.77;98286.81;4926808;29;20058;-69
2021/01/29 10:39:13;;;;;;;18.17;8.43;;;;;;;2.91;50.33;98286.59;4922912;29;20047;-71
2021/01/29 10:41:46;;;;;;;21.70;11.85;;;;;;;3.06;50.03;98293.28;4926564;29;20159;-71
2021/01/29 10:44:21;;;;;;;16.35;9.30;;;;;;;2.92;49.94;98296.06;4922902;29;20047;-69
2021/01/29 10:47:03;;;;;;;23.60;13.80;;;;;;;2.89;50.16;98301.53;4921162;29;20584;-70
2021/01/29 10:49:42;;;;;;;16.42;9.15;;;;;;;2.98;50.35;98299.06;4922675;29;20055;-71
2021/01/29 10:52:18;;;;;;;21.40;10.15;;;;;;;3.05;50.15;98292.47;4926692;29;20255;-72
2021/01/29 10:54:45;;;;;;;20.73;12.05;;;;;;;2.90;50.29;98291.00;4920522;29;20071;-70
2021/01/29 10:57:21;;;;;;;23.63;12.32;;;;;;;2.93;50.33;98282.94;4921728;29;20999;-71
2021/01/29 10:59:54;;;;;;;17.38;9.48;;;;;;;3.09;50.27;98284.44;4922447;29;20048;-72
2021/01/29 11:02:31;;;;;;;14.18;9.68;;;;;;;3.07;49.79;98279.31;4940984;28;20065;-71
2021/01/29 11:05:06;;;;;;;13.07;8.73;;;;;;;2.85;50.01;98278.28;4978078;28;20058;-71
2021/01/29 11:07:35;;;;;;;15.82;7.47;;;;;;;2.92;50.08;98283.88;4981865;28;20556;-71
2021/01/29 11:10:07;;;;;;;20.10;11.43;;;;;;;2.89;50.45;98272.84;5034611;28;20049;-71
2021/01/29 11:12:39;;;;;;;12.70;8.90;;;;;;;2.81;50.22;98274.22;5039180;28;20079;-72
2021/01/29 11:15:18;;;;;;;13.18;9.38;;;;;;;2.62;50.32;98271.28;5043653;28;20052;-72
2021/01/29 11:17:55;;;;;;;15.18;7.28;;;;;;;2.76;50.35;98271.13;5041017;28;20052;-72
2021/01/29 11:20:31;;;;;;;14.65;6.10;;;;;;;3.01;50.17;98277.16;5042060;28;20069;-73
2021/01/29 11:23:07;;;;;;;12.60;6.13;;;;;;;3.17;50.13;98272.50;5041840;28;20103;-73
2021/01/29 11:25:51;;;;;;;13.60;8.40;;;;;;;3.13;49.76;98265.81;5040860;28;20657;-72
2021/01/29 11:28:50;;;;;;;14.05;6.07;;;;;;;3.12;50.04;98279.00;5041811;28;20116;-73
2021/01/29 11:31:28;;;;;;;11.82;6.78;;;;;;;3.20;49.70;98282.69;4976413;28;20101;-71
2021/01/29 11:33:59;;;;;;;7.15;5.38;;;;;;;3.14;50.06;98282.31;4977564;28;20140;-71
2021/01/29 11:36:34;;;;;;;10.13;7.10;;;;;;;3.03;49.31;98276.09;4976258;28;20081;-72
2021/01/29 11:39:08;;;;;;;11.45;7.90;;;;;;;2.69;50.17;98277.72;4961247;28;20049;-73
2021/01/29 11:41:50;;;;;;;12.48;7.72;;;;;;;2.63;50.62;98279.00;4977277;28;20042;-72
2021/01/29 11:44:25;;;;;;;8.90;6.03;;;;;;;2.60;50.63;98278.38;4973771;28;20038;-70
2021/01/29 11:47:00;;;;;;;12.35;7.70;;;;;;;2.63;50.61;98284.22;4976730;28;20042;-73
2021/01/29 11:49:32;;;;;;;15.18;8.30;;;;;;;2.77;50.54;98287.59;4980261;28;20046;-75
2021/01/29 11:52:24;;;;;;;18.63;9.88;;;;;;;2.89;50.57;98288.50;4979508;28;20147;-72
2021/01/29 11:54:57;;;;;;;18.58;9.48;;;;;;;2.99;50.21;98292.06;4977269;28;20693;-71
2021/01/29 11:57:35;;;;;;;17.17;8.10;;;;;;;2.97;50.38;98291.34;4980344;28;20056;-72
2021/01/29 12:00:10;;;;;;;17.33;10.02;;;;;;;2.97;50.50;98288.75;4979053;28;20091;-71
2021/01/29 12:02:40;;;;;;;20.48;10.55;;;;;;;2.98;50.39;98290.44;4978000;28;20696;-70
2021/01/29 12:05:22;;;;;;;26.67;13.30;;;;;;;2.98;50.44;98287.81;4978029;28;20125;-72
2021/01/29 12:08:02;;;;;;;16.30;8.85;;;;;;;2.98;50.74;98277.38;4993755;28;20131;-71
2021/01/29 12:10:36;;;;;;;16.10;8.07;;;;;;;2.90;50.86;98280.56;5040256;28;20041;-72
2021/01/29 12:13:12;;;;;;;19.50;10.40;;;;;;;2.87;50.75;98281.59;5044197;28;20043;-71
2021/01/29 12:15:42;;;;;;;22.58;13.23;;;;;;;2.90;50.84;98277.94;5041296;28;20065;-70
2021/01/29 12:18:12;;;;;;;15.60;8.95;;;;;;;2.92;50.44;98270.00;5040814;28;20068;-69
2021/01/29 12:20:42;;;;;;;28.38;14.05;;;;;;;3.05;50.71;98276.00;5039948;28;20102;-70
2021/01/29 12:23:15;;;;;;;13.23;8.25;;;;;;;3.06;50.12;98270.66;5041138;28;20106;-70
2021/01/29 12:25:58;;;;;;;19.00;9.57;;;;;;;3.09;50.70;98274.00;5038554;28;20639;-72
2021/01/29 12:28:44;;;;;;;17.42;10.40;;;;;;;3.11;50.51;98269.50;5039574;28;20045;-73
2021/01/29 12:31:24;;;;;;;21.52;11.57;;;;;;;3.19;50.17;98275.00;5039058;28;20132;-71